createdAt,value
2023-03-17T14:47:18.578Z,28.12
2023-03-17T14:51:18.773Z,28.16
2023-03-17T14:55:18.770Z,28.11
2023-03-17T14:59:18.775Z,28.07
2023-03-17T15:03:18.774Z,28.02
2023-03-17T15:07:18.800Z,27.99
2023-03-17T15:11:18.797Z,27.95
2023-03-17T15:15:18.791Z,27.87
2023-03-17T15:19:18.281Z,27.83
2023-03-17T15:23:18.288Z,27.72
2023-03-17T15:27:18.271Z,27.67
2023-03-17T15:39:18.350Z,27.38
2023-03-17T15:43:18.280Z,27.32
2023-03-17T15:47:18.251Z,27.26
2023-03-17T15:51:18.229Z,27.20
2023-03-17T15:55:18.202Z,27.14
2023-03-17T15:59:18.158Z,27.10
2023-03-17T16:03:18.134Z,27.04
2023-03-17T16:07:18.076Z,27.00
2023-03-17T16:19:17.999Z,26.85
2023-03-17T20:51:19.393Z,25.05
2023-03-17T20:55:19.346Z,25.00
2023-03-17T20:59:19.309Z,24.97
2023-03-17T21:03:19.392Z,24.96
2023-03-17T21:07:19.245Z,24.97
2023-03-17T21:11:19.203Z,24.90
2023-03-17T21:15:19.172Z,24.91
2023-03-17T21:19:19.232Z,24.87
2023-03-17T21:23:19.475Z,24.87
2023-03-17T21:27:19.684Z,24.86
2023-03-17T21:31:19.832Z,24.83
2023-03-17T21:35:19.847Z,24.80
2023-03-17T21:39:19.918Z,24.79
2023-03-17T21:43:20.114Z,24.73
2023-03-17T21:47:20.101Z,24.72
2023-03-17T21:51:20.059Z,24.70
2023-03-17T21:55:20.009Z,24.67
2023-03-17T21:59:19.975Z,24.69
2023-03-17T22:03:20.018Z,24.66
2023-03-17T22:07:19.920Z,24.65
2023-03-17T22:11:19.895Z,24.63
2023-03-17T22:15:19.821Z,24.62
2023-03-17T22:19:21.298Z,24.62
2023-03-17T22:23:19.752Z,24.58
2023-03-17T22:27:19.724Z,24.55
2023-03-17T22:31:19.690Z,24.55
2023-03-17T22:35:19.665Z,24.54
2023-03-17T22:39:19.735Z,24.52
2023-03-17T22:43:19.919Z,24.51
2023-03-17T22:47:20.095Z,24.49
2023-03-17T22:51:20.434Z,24.48
2023-03-17T22:55:20.435Z,24.46
2023-03-17T22:59:20.466Z,24.43
2023-03-17T23:03:21.009Z,24.42
2023-03-17T23:07:20.959Z,24.38
2023-03-17T23:11:20.960Z,24.36
2023-03-17T23:15:21.040Z,24.34
2023-03-17T23:19:20.964Z,24.34
2023-03-17T23:23:20.578Z,24.31
2023-03-17T23:27:20.546Z,24.31
2023-03-17T23:31:20.577Z,24.29
2023-03-17T23:35:20.477Z,24.26
2023-03-17T23:39:20.432Z,24.25
2023-03-17T23:43:20.382Z,24.22
2023-03-17T23:47:20.471Z,24.22
2023-03-17T23:51:20.453Z,24.21
2023-03-17T23:55:20.471Z,24.22
2023-03-17T23:59:20.330Z,24.19
